Time;durP1;ratioP1;P1;durP2;ratioP2;P2;SDS_P1;SDS_P2;PMS_P1;PMS_P2;Temp;Humidity;BMP_temperature;BMP_pressure;BME280_temperature;BME280_humidity;BME280_pressure;Samples;Min_cycle;Max_cycle;Signal;HPM_P1;HPM_P2
2022/02/05 00:00:35;;;;;;;14.80;2.78;;;3.50;99.90;;;;;;5065957;28;20049;-67
2022/02/05 00:05:43;;;;;;;12.43;3.30;;;3.50;99.90;;;;;;5063211;28;20045;-66
2022/02/05 00:43:07;;;;;;;18.17;3.17;;;4.30;99.90;;;;;;5066932;28;20055;-66
2022/02/05 00:45:36;;;;;;;19.67;3.38;;;4.40;99.90;;;;;;5082093;28;20443;-66
2022/02/05 00:48:04;;;;;;;16.30;2.97;;;4.50;99.90;;;;;;5066727;28;20045;-66
2022/02/05 00:50:32;;;;;;;21.60;4.05;;;4.30;99.90;;;;;;5048842;28;20345;-67
2022/02/05 00:53:27;;;;;;;18.83;3.38;;;4.40;99.90;;;;;;5082003;28;20053;-66
2022/02/05 00:55:54;;;;;;;20.58;3.45;;;4.50;99.90;;;;;;5067579;28;20044;-66
2022/02/05 00:58:20;;;;;;;17.52;3.03;;;4.50;99.90;;;;;;5066433;28;20051;-66
2022/02/05 01:00:46;;;;;;;16.67;4.00;;;4.50;99.90;;;;;;5082182;28;20052;-66
2022/02/05 01:03:11;;;;;;;19.00;3.28;;;4.60;99.90;;;;;;5099334;28;20056;-66
2022/02/05 01:05:37;;;;;;;15.02;3.03;;;4.60;99.90;;;;;;5067528;28;20044;-66
2022/02/05 01:08:03;;;;;;;18.90;3.13;;;4.40;99.90;;;;;;5068126;28;20335;-66
2022/02/05 01:10:29;;;;;;;25.92;4.43;;;4.40;99.90;;;;;;5048501;28;20099;-66
2022/02/05 01:13:04;;;;;;;18.50;3.35;;;4.50;99.90;;;;;;5066381;28;20489;-66
2022/02/05 01:16:01;;;;;;;13.70;3.88;;;4.50;99.90;;;;;;5081837;28;20055;-66
2022/02/05 01:18:17;;;;;;;17.63;3.30;;;4.30;99.90;;;;;;5065705;28;20045;-66
2022/02/05 01:23:53;;;;;;;15.70;3.00;;;4.30;99.90;;;;;;5081892;28;20109;-66
2022/02/05 01:26:24;;;;;;;18.45;3.08;;;4.20;99.90;;;;;;5065514;28;20053;-66
2022/02/05 01:28:56;;;;;;;14.65;2.60;;;4.20;99.90;;;;;;5065782;28;20049;-66
2022/02/05 01:31:30;;;;;;;12.57;2.60;;;4.20;99.90;;;;;;5063280;28;20571;-67
2022/02/05 01:50:52;;;;;;;12.77;3.03;;;4.30;99.90;;;;;;5023497;28;20080;-66
2022/02/05 01:53:30;;;;;;;17.88;3.05;;;4.10;99.90;;;;;;5007178;28;20062;-66
2022/02/05 01:56:25;;;;;;;16.77;3.65;;;4.30;99.90;;;;;;5016454;28;20077;-66
2022/02/05 01:59:10;;;;;;;17.65;3.53;;;4.20;99.90;;;;;;5007082;28;20061;-66
2022/02/05 02:07:24;;;;;;;12.48;3.13;;;4.20;99.90;;;;;;5019968;28;20134;-66
2022/02/05 02:12:20;;;;;;;16.85;3.10;;;4.20;99.90;;;;;;5039846;28;20049;-66
2022/02/05 02:20:18;;;;;;;16.52;2.55;;;4.30;99.90;;;;;;5064402;28;20105;-66
2022/02/05 02:23:00;;;;;;;18.52;4.00;;;4.50;99.90;;;;;;5064911;28;20056;-66
2022/02/05 02:30:27;;;;;;;17.27;3.75;;;4.50;99.90;;;;;;5079632;28;20524;-66
2022/02/05 02:33:04;;;;;;;11.80;2.65;;;4.50;99.90;;;;;;5064612;28;20136;-66
2022/02/05 02:35:32;;;;;;;17.20;2.45;;;4.60;99.90;;;;;;5079167;28;20103;-66
2022/02/05 02:38:07;;;;;;;12.10;2.72;;;4.60;99.90;;;;;;5064808;28;20052;-66
2022/02/05 02:43:07;;;;;;;20.90;3.08;;;4.60;99.90;;;;;;5047016;28;20076;-66
2022/02/05 02:45:34;;;;;;;15.23;3.38;;;4.70;99.90;;;;;;5064131;28;20052;-66
2022/02/05 02:48:00;;;;;;;17.10;3.13;;;4.70;99.90;;;;;;5079918;28;20142;-66
2022/02/05 02:50:33;;;;;;;20.05;3.78;;;4.80;99.90;;;;;;5079932;28;20044;-66
2022/02/05 02:58:32;;;;;;;16.90;3.45;;;4.60;99.90;;;;;;5064432;28;20055;-66
2022/02/05 03:00:59;;;;;;;16.25;2.75;;;4.60;99.90;;;;;;5067921;28;20048;-66
2022/02/05 03:03:27;;;;;;;15.90;2.85;;;4.60;99.90;;;;;;5064019;28;20453;-66
2022/02/05 03:05:53;;;;;;;18.38;4.05;;;4.40;99.90;;;;;;5079021;28;20063;-66
2022/02/05 03:08:18;;;;;;;14.05;2.53;;;4.50;99.90;;;;;;5064349;28;20037;-66
2022/02/05 03:10:44;;;;;;;14.65;2.88;;;4.40;99.90;;;;;;5064283;28;20045;-66
2022/02/05 03:13:10;;;;;;;18.25;3.05;;;4.40;99.90;;;;;;5079532;28;20400;-66
2022/02/05 03:15:38;;;;;;;14.55;3.08;;;4.50;99.90;;;;;;5063874;28;20102;-66
2022/02/05 03:18:09;;;;;;;20.98;3.85;;;4.50;99.90;;;;;;5079722;28;20473;-66
2022/02/05 03:20:35;;;;;;;20.40;3.80;;;4.50;99.90;;;;;;5045379;28;20044;-66
2022/02/05 03:23:03;;;;;;;15.30;3.45;;;4.40;99.90;;;;;;5045678;28;20059;-66
2022/02/05 03:25:30;;;;;;;18.13;3.00;;;4.50;99.90;;;;;;5034422;28;20101;-66
2022/02/05 03:27:56;;;;;;;17.85;3.00;;;4.60;99.90;;;;;;5061892;28;20126;-66
2022/02/05 03:30:22;;;;;;;20.63;3.53;;;4.50;99.90;;;;;;5064018;28;20033;-66
2022/02/05 03:32:47;;;;;;;12.27;2.60;;;4.40;99.90;;;;;;5037903;28;20600;-66
2022/02/05 03:35:13;;;;;;;24.80;3.88;;;4.60;99.90;;;;;;5077715;28;20056;-66
2022/02/05 03:37:39;;;;;;;22.67;3.38;;;4.40;99.90;;;;;;5063729;28;20528;-66
2022/02/05 03:40:05;;;;;;;20.58;3.53;;;4.30;99.90;;;;;;5081276;28;20044;-66
2022/02/05 03:42:31;;;;;;;28.17;3.78;;;4.30;99.90;;;;;;5063393;28;20079;-66
2022/02/05 03:44:57;;;;;;;16.80;3.15;;;4.50;99.90;;;;;;5045315;28;20040;-66
2022/02/05 03:47:23;;;;;;;19.00;3.70;;;4.50;99.90;;;;;;5063745;28;20040;-66
2022/02/05 03:49:50;;;;;;;13.25;3.00;;;4.40;99.90;;;;;;5062869;28;20045;-66
2022/02/05 03:52:17;;;;;;;10.30;3.20;;;4.30;99.90;;;;;;5079266;28;20064;-66
2022/02/05 03:54:45;;;;;;;21.45;3.10;;;4.20;99.90;;;;;;5064653;28;20076;-66
2022/02/05 03:57:10;;;;;;;14.65;3.33;;;4.20;99.90;;;;;;5064308;28;20048;-66
2022/02/05 03:59:36;;;;;;;20.77;2.92;;;4.10;99.90;;;;;;5063236;28;20131;-66
2022/02/05 04:02:02;;;;;;;18.38;3.63;;;3.90;99.90;;;;;;5063594;28;20060;-66
2022/02/05 04:04:29;;;;;;;21.35;3.22;;;4.00;99.90;;;;;;5062969;28;20045;-66
2022/02/05 04:06:54;;;;;;;15.18;3.55;;;3.80;99.90;;;;;;5062792;28;20064;-66
2022/02/05 04:09:26;;;;;;;24.08;3.67;;;3.70;99.90;;;;;;5063616;28;20040;-66
2022/02/05 04:17:20;;;;;;;24.20;3.45;;;3.80;99.90;;;;;;5063900;28;20140;-66
2022/02/05 04:19:45;;;;;;;16.67;3.72;;;3.70;99.90;;;;;;5063278;28;20037;-66
2022/02/05 04:22:11;;;;;;;15.13;3.75;;;3.80;99.90;;;;;;5063424;28;20135;-66
2022/02/05 04:24:37;;;;;;;17.58;3.70;;;3.90;99.90;;;;;;5044956;28;20044;-66
2022/02/05 04:27:03;;;;;;;15.13;3.17;;;3.70;99.90;;;;;;5078391;28;20063;-66
2022/02/05 04:29:29;;;;;;;34.30;4.97;;;3.60;99.90;;;;;;5045454;28;20048;-66
2022/02/05 04:31:54;;;;;;;22.35;3.40;;;3.60;99.90;;;;;;5063023;28;20045;-66
2022/02/05 04:34:20;;;;;;;17.25;2.75;;;3.80;99.90;;;;;;5078313;28;20049;-66
2022/02/05 04:36:46;;;;;;;18.92;4.50;;;3.70;99.90;;;;;;5063221;28;20086;-66
2022/02/05 04:39:15;;;;;;;18.42;3.15;;;3.70;99.90;;;;;;5079126;28;20252;-66
2022/02/05 04:57:35;;;;;;;20.63;3.20;;;4.00;99.90;;;;;;5082276;28;20074;-66
2022/02/05 05:05:17;;;;;;;18.95;3.75;;;4.10;99.90;;;;;;5081718;28;20111;-66
2022/02/05 05:10:27;;;;;;;20.95;3.22;;;4.30;99.90;;;;;;5066209;28;20041;-66
2022/02/05 05:20:31;;;;;;;17.92;3.80;;;4.20;99.90;;;;;;5066323;28;20044;-66
2022/02/05 05:22:57;;;;;;;16.75;3.45;;;4.20;99.90;;;;;;5066489;28;20057;-66
2022/02/05 05:25:22;;;;;;;20.15;4.35;;;4.00;99.90;;;;;;5048013;28;20068;-66
2022/02/05 05:27:48;;;;;;;16.15;3.38;;;4.10;99.90;;;;;;5065957;28;20049;-66
2022/02/05 05:30:14;;;;;;;17.30;3.42;;;3.90;99.90;;;;;;5048209;28;20068;-66
2022/02/05 05:32:40;;;;;;;19.35;3.35;;;3.90;99.90;;;;;;5065926;28;20056;-67
2022/02/05 05:35:07;;;;;;;22.25;3.42;;;3.90;99.90;;;;;;5068881;28;20060;-66
2022/02/05 05:37:33;;;;;;;15.48;2.97;;;3.70;99.90;;;;;;5081118;28;20060;-66
2022/02/05 05:39:59;;;;;;;17.73;3.05;;;3.60;99.90;;;;;;5081178;28;20052;-66
2022/02/05 05:42:30;;;;;;;19.30;3.45;;;3.60;99.90;;;;;;5065622;28;20041;-66
2022/02/05 05:50:58;;;;;;;15.77;3.03;;;3.50;99.90;;;;;;5057703;28;20413;-66
2022/02/05 05:53:20;;;;;;;20.50;3.25;;;3.50;99.90;;;;;;5065510;28;20076;-66
2022/02/05 05:55:48;;;;;;;22.33;2.92;;;3.60;99.90;;;;;;5080733;28;20056;-66
2022/02/05 05:58:18;;;;;;;19.85;3.92;;;3.50;99.90;;;;;;5065719;28;20072;-66
2022/02/05 06:00:45;;;;;;;21.35;3.97;;;3.60;99.90;;;;;;5065456;28;20052;-66
2022/02/05 06:03:10;;;;;;;18.85;3.00;;;3.40;99.90;;;;;;5065315;28;20435;-66
2022/02/05 06:05:37;;;;;;;17.85;3.10;;;3.50;99.90;;;;;;5039383;28;20040;-66
2022/02/05 06:08:04;;;;;;;16.65;3.25;;;3.50;99.90;;;;;;5080400;28;20068;-66
2022/02/05 06:10:30;;;;;;;18.85;5.25;;;3.60;99.90;;;;;;5045100;28;20496;-66
2022/02/05 06:12:56;;;;;;;22.08;4.05;;;3.70;99.90;;;;;;5039862;28;20109;-66
2022/02/05 06:15:22;;;;;;;21.63;4.25;;;3.60;99.90;;;;;;5044587;28;20040;-66
2022/02/05 06:17:50;;;;;;;15.23;4.53;;;3.60;99.90;;;;;;5029072;28;20056;-66
2022/02/05 06:20:16;;;;;;;18.48;3.45;;;3.80;99.90;;;;;;5062238;28;20060;-66
2022/02/05 06:22:42;;;;;;;23.38;3.45;;;3.70;99.90;;;;;;5065116;28;20041;-66
2022/02/05 06:25:08;;;;;;;14.98;3.03;;;3.70;99.90;;;;;;5080164;28;20452;-66
2022/02/05 06:27:34;;;;;;;22.45;4.28;;;3.70;99.90;;;;;;5065102;28;20044;-66
2022/02/05 06:29:59;;;;;;;19.27;4.28;;;3.60;99.90;;;;;;5064733;28;20367;-66
2022/02/05 06:32:25;;;;;;;25.75;3.17;;;3.40;99.90;;;;;;5064961;28;20060;-66
2022/02/05 06:34:51;;;;;;;20.75;3.60;;;3.60;99.90;;;;;;5079704;28;20041;-66
2022/02/05 06:37:18;;;;;;;17.25;2.92;;;3.40;99.90;;;;;;5065122;28;20075;-66
2022/02/05 06:39:44;;;;;;;18.10;3.35;;;3.50;99.90;;;;;;5079975;28;20283;-66
2022/02/05 06:42:10;;;;;;;20.75;4.60;;;3.40;99.90;;;;;;5080385;28;20045;-66
2022/02/05 06:44:36;;;;;;;21.90;3.60;;;3.50;99.90;;;;;;5080187;28;20153;-66
2022/02/05 06:47:03;;;;;;;18.20;2.45;;;3.50;99.90;;;;;;5064290;28;20424;-66
2022/02/05 06:49:30;;;;;;;16.73;3.92;;;3.50;99.90;;;;;;5066776;28;20064;-66
2022/02/05 06:51:56;;;;;;;16.38;3.15;;;3.30;99.90;;;;;;5065058;28;20060;-67
2022/02/05 06:54:22;;;;;;;25.02;3.13;;;3.50;99.90;;;;;;5047291;28;20057;-66
2022/02/05 06:56:48;;;;;;;16.58;2.95;;;3.40;99.90;;;;;;5064472;28;20501;-66
2022/02/05 06:59:14;;;;;;;14.32;3.03;;;3.40;99.90;;;;;;5079488;28;20105;-66
2022/02/05 07:01:40;;;;;;;22.27;2.83;;;3.30;99.90;;;;;;5064384;28;20049;-66
2022/02/05 07:04:06;;;;;;;17.38;2.80;;;3.30;99.90;;;;;;5063826;28;20055;-66
2022/02/05 07:06:33;;;;;;;20.65;3.85;;;3.30;99.90;;;;;;5063573;28;20428;-66
2022/02/05 07:09:00;;;;;;;14.38;2.63;;;3.10;99.90;;;;;;5064172;28;20045;-66
2022/02/05 07:11:25;;;;;;;19.23;3.17;;;3.30;99.90;;;;;;5064226;28;20531;-66
2022/02/05 07:13:54;;;;;;;22.63;3.70;;;3.20;99.90;;;;;;5064200;28;20041;-66
2022/02/05 07:16:39;;;;;;;17.10;2.95;;;3.10;99.90;;;;;;5063649;28;20037;-66
2022/02/05 07:19:22;;;;;;;18.00;3.10;;;3.30;99.90;;;;;;5044502;28;20128;-66
2022/02/05 07:21:51;;;;;;;19.38;3.20;;;3.20;99.90;;;;;;5064189;28;20044;-66
2022/02/05 07:29:12;;;;;;;16.35;2.50;;;3.30;99.90;;;;;;5079192;28;20060;-66
2022/02/05 07:29:50;;;;;;;20.20;2.80;;;3.20;99.90;;;;;;5046113;28;20098;-66
2022/02/05 07:32:16;;;;;;;19.98;2.53;;;3.20;99.90;;;;;;5063382;28;20061;-66
2022/02/05 07:34:41;;;;;;;16.15;2.67;;;3.30;99.90;;;;;;5064047;28;20053;-66
2022/02/05 07:37:08;;;;;;;21.42;3.38;;;3.20;99.90;;;;;;5063545;28;20051;-66
2022/02/05 07:39:41;;;;;;;17.73;2.97;;;3.20;99.90;;;;;;5063625;28;20049;-66
2022/02/05 07:42:07;;;;;;;16.73;2.72;;;3.20;99.90;;;;;;5078958;28;20048;-66
2022/02/05 07:44:33;;;;;;;26.15;3.92;;;3.20;99.90;;;;;;5044714;28;20045;-66
2022/02/05 07:47:01;;;;;;;16.00;2.92;;;3.10;99.90;;;;;;5063647;28;20049;-66
2022/02/05 07:49:30;;;;;;;22.70;3.58;;;3.40;99.90;;;;;;5058354;28;20033;-66
2022/02/05 07:51:55;;;;;;;17.65;2.70;;;3.40;99.90;;;;;;5046760;28;20048;-66
2022/02/05 07:54:21;;;;;;;20.58;2.70;;;3.40;99.90;;;;;;5063409;28;20550;-66
2022/02/05 07:56:49;;;;;;;15.20;2.70;;;3.50;99.90;;;;;;5078729;28;20057;-66
2022/02/05 07:59:16;;;;;;;14.48;3.25;;;3.50;99.90;;;;;;5078856;28;20044;-66
2022/02/05 08:01:42;;;;;;;16.35;3.17;;;3.40;99.90;;;;;;5063557;28;20227;-66
2022/02/05 08:04:08;;;;;;;14.25;2.53;;;3.50;99.90;;;;;;5063305;28;20071;-66
2022/02/05 08:06:35;;;;;;;17.77;2.90;;;3.50;99.90;;;;;;5063110;28;20067;-66
2022/02/05 08:09:10;;;;;;;14.18;2.63;;;3.40;99.90;;;;;;5078888;28;20068;-66
2022/02/05 08:11:41;;;;;;;15.60;2.83;;;3.50;99.90;;;;;;5057989;28;20052;-66
2022/02/05 08:14:09;;;;;;;25.52;4.38;;;3.50;99.90;;;;;;5063756;28;20037;-66
2022/02/05 08:19:07;;;;;;;20.90;3.17;;;3.70;99.90;;;;;;5063328;28;20045;-66
2022/02/05 08:21:33;;;;;;;17.73;3.22;;;3.70;99.90;;;;;;5063566;28;20045;-66
2022/02/05 08:23:59;;;;;;;19.75;3.78;;;3.80;99.90;;;;;;5078862;28;20045;-66
2022/02/05 08:26:28;;;;;;;23.23;3.85;;;3.60;99.90;;;;;;5062834;28;20041;-63
2022/02/05 08:28:55;;;;;;;20.95;3.00;;;3.80;99.90;;;;;;5047054;28;20057;-65
2022/02/05 08:31:22;;;;;;;17.13;3.58;;;3.90;99.90;;;;;;5046090;28;20505;-64
2022/02/05 08:33:49;;;;;;;27.48;3.78;;;3.90;99.90;;;;;;5064353;28;20430;-64
2022/02/05 08:36:18;;;;;;;17.58;3.17;;;3.90;99.90;;;;;;5050167;28;20061;-64
2022/02/05 08:38:43;;;;;;;18.08;2.78;;;3.90;99.90;;;;;;5067650;28;20085;-64
2022/02/05 08:41:09;;;;;;;26.02;4.63;;;4.10;99.90;;;;;;5065383;28;20108;-64
2022/02/05 08:43:36;;;;;;;22.45;4.25;;;4.10;99.90;;;;;;5066469;28;20041;-63
2022/02/05 08:46:02;;;;;;;15.13;2.90;;;4.20;99.90;;;;;;5067913;28;20048;-63
2022/02/05 08:48:28;;;;;;;18.85;3.80;;;4.20;99.90;;;;;;5081113;28;20076;-63
2022/02/05 08:50:54;;;;;;;22.55;3.90;;;4.30;99.90;;;;;;5080935;28;20052;-63
2022/02/05 08:53:21;;;;;;;14.40;2.90;;;4.50;99.90;;;;;;5064350;28;20466;-64
2022/02/05 08:55:52;;;;;;;18.23;3.22;;;4.40;99.90;;;;;;5065963;28;20080;-64
2022/02/05 08:58:18;;;;;;;17.40;3.78;;;4.40;99.90;;;;;;5065228;28;20111;-64
2022/02/05 09:00:47;;;;;;;20.63;3.38;;;4.70;99.90;;;;;;5080526;28;20043;-64
2022/02/05 09:03:33;;;;;;;18.33;3.90;;;4.50;99.90;;;;;;5064489;28;20040;-64
2022/02/05 09:06:01;;;;;;;20.70;3.58;;;4.60;99.90;;;;;;5081767;28;20045;-64
2022/02/05 09:08:32;;;;;;;20.63;3.55;;;4.70;99.90;;;;;;5065231;28;20052;-64
2022/02/05 09:11:59;;;;;;;17.35;3.20;;;4.80;99.90;;;;;;5080787;28;20071;-64
2022/02/05 09:14:46;;;;;;;19.20;3.58;;;4.80;99.90;;;;;;5039995;28;20053;-64
2022/02/05 09:16:45;;;;;;;15.88;2.85;;;4.90;99.90;;;;;;5032913;28;20053;-64
2022/02/05 09:19:12;;;;;;;16.38;3.70;;;5.00;99.90;;;;;;5047708;28;20076;-65
2022/02/05 09:21:38;;;;;;;19.38;3.13;;;5.00;99.90;;;;;;5064514;28;20052;-64
2022/02/05 09:24:06;;;;;;;18.58;3.05;;;5.10;99.90;;;;;;5082815;28;20044;-64
2022/02/05 09:26:34;;;;;;;14.98;3.88;;;5.20;99.90;;;;;;5028512;28;20539;-63
2022/02/05 09:29:10;;;;;;;22.38;3.78;;;5.10;99.90;;;;;;5044335;28;20080;-62
2022/02/05 09:31:36;;;;;;;14.65;3.58;;;5.20;99.90;;;;;;5045539;28;20073;-62
2022/02/05 09:34:04;;;;;;;15.60;3.10;;;5.20;99.90;;;;;;5055454;28;20060;-62
2022/02/05 09:36:31;;;;;;;26.45;3.72;;;5.30;99.90;;;;;;5016511;28;20053;-62
2022/02/05 09:38:57;;;;;;;19.05;4.35;;;5.30;99.90;;;;;;5063196;28;20052;-62
2022/02/05 09:41:24;;;;;;;17.48;3.53;;;5.30;99.90;;;;;;5064418;28;20147;-63
2022/02/05 09:43:50;;;;;;;15.13;3.20;;;5.40;99.90;;;;;;5075399;28;20072;-62
2022/02/05 09:46:18;;;;;;;25.25;3.63;;;5.50;99.90;;;;;;5060716;28;20546;-62
2022/02/05 09:48:46;;;;;;;21.40;3.63;;;5.50;99.90;;;;;;5076283;28;20540;-62
2022/02/05 09:51:25;;;;;;;17.40;3.85;;;5.50;99.90;;;;;;5074359;28;20134;-62
2022/02/05 09:53:56;;;;;;;20.92;3.63;;;5.50;99.90;;;;;;5061482;28;20052;-62
2022/02/05 09:56:23;;;;;;;12.73;3.05;;;5.50;99.90;;;;;;5032920;28;20080;-62
2022/02/05 09:58:49;;;;;;;13.52;2.83;;;5.70;99.90;;;;;;5076502;28;20040;-62
2022/02/05 10:01:19;;;;;;;19.13;4.53;;;5.80;99.90;;;;;;5071664;28;20066;-62
2022/02/05 10:03:46;;;;;;;20.05;3.95;;;5.80;99.90;;;;;;5063975;28;20098;-62
2022/02/05 10:06:17;;;;;;;17.63;3.80;;;5.80;99.90;;;;;;5051090;28;20127;-63
2022/02/05 10:09:12;;;;;;;15.90;3.40;;;5.80;99.90;;;;;;5083224;28;20037;-62
2022/02/05 10:11:59;;;;;;;16.67;3.53;;;5.70;99.90;;;;;;5048276;28;20088;-65
2022/02/05 10:14:32;;;;;;;22.25;3.53;;;5.80;99.90;;;;;;5072776;28;20063;-62
2022/02/05 10:17:01;;;;;;;17.70;3.63;;;5.80;99.90;;;;;;5057017;28;20070;-61
2022/02/05 10:19:47;;;;;;;15.23;3.40;;;5.90;99.90;;;;;;5044900;28;20055;-61
2022/02/05 10:22:13;;;;;;;12.85;4.40;;;5.90;99.90;;;;;;5056938;28;20082;-61
2022/02/05 10:24:53;;;;;;;20.45;3.92;;;5.80;99.90;;;;;;5076351;28;20481;-62
2022/02/05 10:27:26;;;;;;;16.98;3.72;;;5.90;99.90;;;;;;5071406;28;20067;-61
2022/02/05 10:30:03;;;;;;;17.98;3.65;;;5.90;99.90;;;;;;5046721;28;20052;-65
2022/02/05 10:32:30;;;;;;;21.08;3.67;;;5.90;99.90;;;;;;5050435;28;20048;-62
2022/02/05 10:37:55;;;;;;;19.38;4.47;;;5.90;99.90;;;;;;5059316;28;20041;-62
2022/02/05 10:40:28;;;;;;;18.08;3.70;;;5.90;99.90;;;;;;5074642;28;20088;-62
2022/02/05 10:43:03;;;;;;;19.50;4.20;;;5.80;99.90;;;;;;5055795;28;20084;-62
2022/02/05 10:45:49;;;;;;;15.45;3.15;;;5.80;99.90;;;;;;5039207;28;20049;-63
2022/02/05 10:48:23;;;;;;;15.77;4.60;;;5.90;99.90;;;;;;5063535;28;20061;-63
2022/02/05 10:50:52;;;;;;;24.42;3.78;;;5.90;99.90;;;;;;5064948;28;20053;-63
2022/02/05 10:53:28;;;;;;;17.25;3.65;;;5.70;99.90;;;;;;5048518;28;20048;-64
2022/02/05 10:58:37;;;;;;;21.55;4.90;;;5.80;99.90;;;;;;5052904;28;20057;-64
2022/02/05 11:07:15;;;;;;;15.95;3.20;;;6.00;99.90;;;;;;5066944;28;20088;-63
2022/02/05 11:09:44;;;;;;;20.83;3.95;;;6.00;99.90;;;;;;5074925;28;20527;-62
2022/02/05 11:20:11;;;;;;;18.83;3.28;;;6.00;99.90;;;;;;5056740;28;20127;-62
2022/02/05 11:22:49;;;;;;;14.15;3.72;;;6.00;99.90;;;;;;5075933;28;20088;-63
2022/02/05 11:25:17;;;;;;;16.30;3.20;;;6.10;99.90;;;;;;5072887;28;20060;-62
2022/02/05 11:27:48;;;;;;;15.90;4.53;;;6.10;99.90;;;;;;5077554;28;20045;-63
2022/02/05 11:30:28;;;;;;;10.07;3.63;;;6.10;99.90;;;;;;5055936;28;20090;-64
2022/02/05 11:33:05;;;;;;;13.82;3.28;;;6.00;99.90;;;;;;5049354;28;20128;-65
2022/02/05 11:38:33;;;;;;;;;;;6.00;99.90;;;;;;5010052;28;20082;-63
2022/02/05 11:41:00;;;;;;;14.68;2.92;;;6.00;99.90;;;;;;5000540;28;20352;-62
2022/02/05 11:43:34;;;;;;;13.95;2.97;;;6.20;99.90;;;;;;4992436;28;20050;-64
2022/02/05 11:46:13;;;;;;;13.25;2.90;;;6.20;99.90;;;;;;5007301;28;20054;-62
2022/02/05 11:48:51;;;;;;;10.82;2.53;;;6.20;99.90;;;;;;4996448;28;20062;-62
2022/02/05 11:51:20;;;;;;;10.65;2.80;;;6.20;99.90;;;;;;4983181;28;20061;-63
2022/02/05 11:54:05;;;;;;;10.40;2.97;;;6.20;99.90;;;;;;4980114;28;20050;-62
2022/02/05 11:57:06;;;;;;;15.48;2.72;;;6.20;99.90;;;;;;4996804;28;20068;-62
2022/02/05 11:59:55;;;;;;;14.93;3.17;;;6.20;99.90;;;;;;4994297;28;20057;-62
2022/02/05 12:02:21;;;;;;;13.63;3.58;;;6.30;99.90;;;;;;4983477;28;20084;-63
2022/02/05 12:05:29;;;;;;;13.07;3.55;;;6.30;99.90;;;;;;4977664;28;20114;-62
2022/02/05 12:08:23;;;;;;;16.40;3.00;;;6.30;99.90;;;;;;4982549;28;20093;-62
2022/02/05 12:10:52;;;;;;;15.77;3.63;;;6.30;99.90;;;;;;5004025;28;20057;-62
2022/02/05 12:13:24;;;;;;;13.80;3.50;;;6.40;99.90;;;;;;5016737;28;20050;-62
2022/02/05 12:15:56;;;;;;;14.77;3.72;;;6.50;99.90;;;;;;5023084;28;20053;-61
2022/02/05 12:18:27;;;;;;;13.70;3.60;;;6.60;99.90;;;;;;5063866;28;20433;-61
2022/02/05 12:21:08;;;;;;;11.82;3.30;;;6.50;99.90;;;;;;5062475;28;20568;-61
2022/02/05 12:26:25;;;;;;;16.13;3.60;;;6.50;99.90;;;;;;5051961;28;20094;-61
2022/02/05 12:28:54;;;;;;;11.90;2.95;;;6.50;99.90;;;;;;5083823;28;20057;-61
2022/02/05 12:31:26;;;;;;;15.93;3.75;;;6.50;99.90;;;;;;5037707;28;20052;-63
2022/02/05 12:34:10;;;;;;;16.58;3.72;;;6.60;99.90;;;;;;5061400;28;20112;-61
2022/02/05 12:36:46;;;;;;;14.57;2.40;;;6.60;99.90;;;;;;5029984;28;20187;-64
2022/02/05 12:39:18;;;;;;;16.55;3.65;;;6.70;99.90;;;;;;5045120;28;20064;-63
2022/02/05 12:41:59;;;;;;;13.80;2.80;;;6.70;99.90;;;;;;5026099;28;20116;-63
2022/02/05 12:44:28;;;;;;;15.77;3.28;;;6.80;99.90;;;;;;5044828;28;20041;-63
2022/02/05 12:47:06;;;;;;;10.48;2.97;;;6.80;99.90;;;;;;5026466;28;20056;-63
2022/02/05 12:52:07;;;;;;;15.65;3.70;;;6.70;99.90;;;;;;5024243;28;20041;-63
2022/02/05 12:54:35;;;;;;;16.33;2.88;;;6.80;99.90;;;;;;5066886;28;20041;-64
2022/02/05 12:57:01;;;;;;;16.42;3.55;;;6.80;99.90;;;;;;5068066;28;20442;-64
2022/02/05 12:59:35;;;;;;;11.25;2.58;;;7.00;99.90;;;;;;5077978;28;20056;-63
2022/02/05 13:02:08;;;;;;;9.05;2.97;;;7.20;99.90;;;;;;5036571;28;20049;-62
2022/02/05 13:04:39;;;;;;;10.05;2.67;;;7.30;99.90;;;;;;5056203;28;20480;-61
2022/02/05 13:07:14;;;;;;;11.75;2.40;;;7.30;99.90;;;;;;5054209;28;20056;-61
2022/02/05 13:12:12;;;;;;;13.57;2.80;;;7.50;99.90;;;;;;5033100;28;20049;-62
2022/02/05 13:15:17;;;;;;;18.95;3.00;;;7.50;99.90;;;;;;5065862;28;20084;-62
2022/02/05 13:18:03;;;;;;;14.02;3.55;;;7.60;99.90;;;;;;5070952;28;20076;-63
2022/02/05 13:29:17;;;;;;;11.02;2.78;;;7.30;99.90;;;;;;5061713;28;20076;-63
2022/02/05 13:34:36;;;;;;;10.55;2.55;;;7.80;99.90;;;;;;5059596;28;20064;-64
2022/02/05 13:39:51;;;;;;;16.90;3.20;;;7.80;99.90;;;;;;5039631;28;20807;-63
2022/02/05 13:42:24;;;;;;;15.95;3.38;;;7.70;99.90;;;;;;5041845;28;20060;-64
2022/02/05 13:45:09;;;;;;;16.38;3.53;;;7.50;99.90;;;;;;5071093;28;20049;-63
2022/02/05 13:47:37;;;;;;;11.18;2.95;;;7.40;99.90;;;;;;5043777;28;20049;-63
2022/02/05 13:50:06;;;;;;;13.05;2.90;;;7.40;99.90;;;;;;5035762;28;20100;-64
2022/02/05 13:52:44;;;;;;;14.13;3.30;;;7.60;99.90;;;;;;5042728;28;20725;-64
2022/02/05 13:55:17;;;;;;;10.68;2.45;;;7.70;99.90;;;;;;5036400;28;20041;-64
2022/02/05 13:58:01;;;;;;;8.13;2.58;;;7.90;99.90;;;;;;5060968;28;20052;-63
2022/02/05 14:00:50;;;;;;;10.55;2.55;;;7.90;99.90;;;;;;5072744;28;20057;-63
2022/02/05 14:03:35;;;;;;;10.50;1.95;;;7.70;99.90;;;;;;5042924;28;20050;-63
2022/02/05 14:06:09;;;;;;;12.50;2.60;;;7.60;99.90;;;;;;5060521;28;20038;-63
2022/02/05 14:08:45;;;;;;;20.77;3.17;;;7.50;99.90;;;;;;5053538;28;20048;-63
2022/02/05 14:11:14;;;;;;;10.25;1.90;;;7.50;99.90;;;;;;5059056;28;20087;-63
2022/02/05 14:13:41;;;;;;;9.95;2.80;;;7.70;99.90;;;;;;5063498;28;20038;-63
2022/02/05 14:16:09;;;;;;;15.95;2.92;;;7.60;99.90;;;;;;5035810;28;20094;-63
2022/02/05 14:18:54;;;;;;;15.20;2.72;;;7.50;99.90;;;;;;5076876;28;20271;-63
2022/02/05 14:21:33;;;;;;;13.48;2.65;;;7.50;99.90;;;;;;5068678;28;20057;-63
2022/02/05 14:23:59;;;;;;;7.07;1.90;;;7.50;99.90;;;;;;5042545;28;20049;-63
2022/02/05 14:26:39;;;;;;;11.07;2.70;;;7.60;99.90;;;;;;5037319;28;20037;-63
2022/02/05 14:29:07;;;;;;;7.30;2.40;;;7.60;99.90;;;;;;5075957;28;20076;-62
2022/02/05 14:31:33;;;;;;;10.90;2.20;;;7.60;99.90;;;;;;5012678;28;20121;-63
2022/02/05 14:42:07;;;;;;;15.73;2.35;;;7.50;99.90;;;;;;5071366;28;20282;-62
2022/02/05 14:44:34;;;;;;;9.65;2.25;;;7.40;99.90;;;;;;5041756;28;20152;-62
2022/02/05 14:47:00;;;;;;;11.27;2.20;;;7.40;99.90;;;;;;5038393;28;20065;-62
2022/02/05 14:49:26;;;;;;;12.45;2.30;;;7.40;99.90;;;;;;5053120;28;20052;-62
2022/02/05 14:51:52;;;;;;;10.48;2.42;;;7.30;99.90;;;;;;5034261;28;20124;-63
2022/02/05 14:54:18;;;;;;;16.25;3.17;;;7.30;99.90;;;;;;5074583;28;20080;-62
2022/02/05 14:56:45;;;;;;;9.20;2.63;;;7.20;99.90;;;;;;5040079;28;20076;-62
2022/02/05 14:59:10;;;;;;;8.73;2.72;;;7.30;99.90;;;;;;5039409;28;20079;-62
2022/02/05 15:01:37;;;;;;;6.07;2.08;;;7.20;99.90;;;;;;5046017;28;20041;-63
2022/02/05 15:04:03;;;;;;;11.70;2.25;;;7.30;99.90;;;;;;5071696;28;20179;-63
2022/02/05 15:06:32;;;;;;;8.38;2.20;;;7.20;99.90;;;;;;5043948;28;20056;-62
2022/02/05 15:08:59;;;;;;;8.68;3.15;;;7.20;99.90;;;;;;5066954;28;20087;-62
2022/02/05 15:11:27;;;;;;;11.82;2.33;;;7.10;99.90;;;;;;5065408;28;20096;-62
2022/02/05 15:13:53;;;;;;;10.75;2.42;;;7.20;99.90;;;;;;5066147;28;20048;-62
2022/02/05 15:16:21;;;;;;;14.65;2.60;;;7.20;99.90;;;;;;5083481;28;20048;-62
2022/02/05 15:18:53;;;;;;;12.32;2.38;;;7.20;99.90;;;;;;5064152;28;20045;-63
2022/02/05 15:21:20;;;;;;;6.25;1.77;;;7.20;99.90;;;;;;5063067;28;20065;-62
2022/02/05 15:23:46;;;;;;;7.90;2.53;;;7.20;99.90;;;;;;5027162;28;20045;-63
2022/02/05 15:26:12;;;;;;;8.40;2.25;;;7.20;99.90;;;;;;5086518;28;20046;-62
2022/02/05 15:28:37;;;;;;;7.28;2.35;;;7.10;99.90;;;;;;5038731;28;20044;-62
2022/02/05 15:31:04;;;;;;;9.45;1.95;;;7.20;99.90;;;;;;5053281;28;20045;-62
2022/02/05 15:33:32;;;;;;;9.82;2.35;;;7.20;99.90;;;;;;5026979;28;20607;-63
2022/02/05 15:36:03;;;;;;;12.27;2.30;;;7.20;99.90;;;;;;5076983;28;20307;-62
2022/02/05 15:39:11;;;;;;;10.63;2.33;;;7.10;99.90;;;;;;5035983;28;20052;-62
2022/02/05 15:44:06;;;;;;;16.65;2.83;;;7.10;99.90;;;;;;5029560;28;20265;-62
2022/02/05 15:46:32;;;;;;;10.68;2.25;;;7.10;99.90;;;;;;5058745;28;20060;-62
2022/02/05 15:48:58;;;;;;;14.30;2.45;;;7.10;99.90;;;;;;5068179;28;20072;-62
2022/02/05 15:51:28;;;;;;;13.35;2.55;;;7.00;99.90;;;;;;5051011;28;20052;-62
2022/02/05 15:53:56;;;;;;;9.65;2.28;;;7.10;99.90;;;;;;5065792;28;20107;-62
2022/02/05 15:56:28;;;;;;;9.15;2.20;;;7.00;99.90;;;;;;5064084;28;20049;-62
2022/02/05 15:58:55;;;;;;;6.40;2.13;;;6.90;99.90;;;;;;5039781;28;20071;-63
2022/02/05 16:01:21;;;;;;;13.68;2.50;;;6.90;99.90;;;;;;5059449;28;20063;-62
2022/02/05 16:03:47;;;;;;;9.38;2.35;;;6.90;99.90;;;;;;5038764;28;20045;-62
2022/02/05 16:06:13;;;;;;;11.05;2.25;;;7.00;99.90;;;;;;5075872;28;20143;-62
2022/02/05 16:08:38;;;;;;;9.45;2.28;;;6.90;99.90;;;;;;5037756;28;20041;-62
2022/02/05 16:11:04;;;;;;;11.50;2.83;;;6.80;99.90;;;;;;5039964;28;20079;-62